New Waverly, Texas
Current Conditions -  °F | °C
As of 9:53 PM on Friday 31 Oct 2014 (Local Time) from KCXO Reporting Station
Clear Clear  
Wind Chill: 55°   Ceiling: Unl
Heat Index: 55°   Visibility: 10mi
Dew Point: 44°   Wind: 5mph
Humidity: 67%   Direction: 10°N
Pressure: 30.28"   Gusts: NA
Location:  30.54°N, 95.48°W
Report Text: KCXO 010253Z AUTO 01004KT 10SM CLR 13/07 A3028 RMK AO2 SLP250 T01280067 51021
Loading
Personal Weather Stations






























Interactive Weather Map
Tropical Storm Tracking
New forecast layout! Learn more

10-Day Weather Forecast

Advertisements
Track Severe Weather on mobile